sensor_id;sensor_type;location;lat;lon;timestamp;temperature;humidity
35463;DHT22;21578;47.892;9.970;2022-07-09T00:03:18;14.90;83.20
35463;DHT22;21578;47.892;9.970;2022-07-09T00:08:06;14.90;83.30
35463;DHT22;21578;47.892;9.970;2022-07-09T00:12:53;14.80;83.40
35463;DHT22;21578;47.892;9.970;2022-07-09T00:17:40;14.80;83.40
35463;DHT22;21578;47.892;9.970;2022-07-09T00:22:27;14.80;83.70
35463;DHT22;21578;47.892;9.970;2022-07-09T00:27:16;14.70;83.90
35463;DHT22;21578;47.892;9.970;2022-07-09T00:32:03;14.60;84.30
35463;DHT22;21578;47.892;9.970;2022-07-09T00:36:50;14.60;84.40
35463;DHT22;21578;47.892;9.970;2022-07-09T00:41:37;14.50;84.60
35463;DHT22;21578;47.892;9.970;2022-07-09T00:46:26;14.50;84.80
35463;DHT22;21578;47.892;9.970;2022-07-09T00:51:13;14.50;84.90
35463;DHT22;21578;47.892;9.970;2022-07-09T00:56:01;14.40;84.90
35463;DHT22;21578;47.892;9.970;2022-07-09T01:00:49;14.40;85.30
35463;DHT22;21578;47.892;9.970;2022-07-09T01:05:37;14.30;85.50
35463;DHT22;21578;47.892;9.970;2022-07-09T01:10:24;14.20;85.20
35463;DHT22;21578;47.892;9.970;2022-07-09T01:15:11;14.10;85.30
35463;DHT22;21578;47.892;9.970;2022-07-09T01:19:58;14.00;86.50
35463;DHT22;21578;47.892;9.970;2022-07-09T01:24:47;13.90;86.70
35463;DHT22;21578;47.892;9.970;2022-07-09T01:29:35;13.80;87.80
35463;DHT22;21578;47.892;9.970;2022-07-09T01:34:22;13.90;87.80
35463;DHT22;21578;47.892;9.970;2022-07-09T01:39:23;14.00;87.40
35463;DHT22;21578;47.892;9.970;2022-07-09T01:44:11;14.00;87.30
35463;DHT22;21578;47.892;9.970;2022-07-09T01:48:58;14.00;87.50
35463;DHT22;21578;47.892;9.970;2022-07-09T01:53:45;13.90;87.80
35463;DHT22;21578;47.892;9.970;2022-07-09T01:58:32;13.90;87.80
35463;DHT22;21578;47.892;9.970;2022-07-09T02:03:21;13.90;87.60
35463;DHT22;21578;47.892;9.970;2022-07-09T02:08:08;14.00;87.50
35463;DHT22;21578;47.892;9.970;2022-07-09T02:12:55;13.90;87.50
35463;DHT22;21578;47.892;9.970;2022-07-09T02:17:42;13.90;87.50
35463;DHT22;21578;47.892;9.970;2022-07-09T02:22:31;13.80;87.80
35463;DHT22;21578;47.892;9.970;2022-07-09T02:27:18;13.80;88.00
35463;DHT22;21578;47.892;9.970;2022-07-09T02:32:06;13.80;87.40
35463;DHT22;21578;47.892;9.970;2022-07-09T02:36:55;13.70;87.80
35463;DHT22;21578;47.892;9.970;2022-07-09T02:41:44;13.60;88.30
35463;DHT22;21578;47.892;9.970;2022-07-09T02:46:31;13.40;88.70
35463;DHT22;21578;47.892;9.970;2022-07-09T02:51:18;13.50;88.80
35463;DHT22;21578;47.892;9.970;2022-07-09T02:56:05;13.40;88.90
35463;DHT22;21578;47.892;9.970;2022-07-09T03:00:54;13.30;89.60
35463;DHT22;21578;47.892;9.970;2022-07-09T03:05:41;13.30;89.70
35463;DHT22;21578;47.892;9.970;2022-07-09T03:10:28;13.30;88.20
35463;DHT22;21578;47.892;9.970;2022-07-09T03:15:15;13.20;88.20
35463;DHT22;21578;47.892;9.970;2022-07-09T03:20:05;13.00;89.20
35463;DHT22;21578;47.892;9.970;2022-07-09T03:24:53;12.80;90.60
35463;DHT22;21578;47.892;9.970;2022-07-09T03:29:40;12.80;91.00
35463;DHT22;21578;47.892;9.970;2022-07-09T03:34:27;12.80;90.70
35463;DHT22;21578;47.892;9.970;2022-07-09T03:39:15;12.80;90.70
35463;DHT22;21578;47.892;9.970;2022-07-09T03:44:02;12.70;91.20
35463;DHT22;21578;47.892;9.970;2022-07-09T03:48:50;12.70;91.10
35463;DHT22;21578;47.892;9.970;2022-07-09T03:53:37;12.70;91.20
35463;DHT22;21578;47.892;9.970;2022-07-09T03:58:25;12.70;91.30
35463;DHT22;21578;47.892;9.970;2022-07-09T04:03:12;12.60;91.80
35463;DHT22;21578;47.892;9.970;2022-07-09T04:07:59;12.60;91.40
35463;DHT22;21578;47.892;9.970;2022-07-09T04:12:46;12.60;92.30
35463;DHT22;21578;47.892;9.970;2022-07-09T04:17:35;12.50;92.20
35463;DHT22;21578;47.892;9.970;2022-07-09T04:22:22;12.50;92.50
35463;DHT22;21578;47.892;9.970;2022-07-09T04:27:09;12.60;92.10
35463;DHT22;21578;47.892;9.970;2022-07-09T04:31:56;12.60;92.10
35463;DHT22;21578;47.892;9.970;2022-07-09T04:36:44;12.60;91.70
35463;DHT22;21578;47.892;9.970;2022-07-09T04:41:32;12.60;91.80
35463;DHT22;21578;47.892;9.970;2022-07-09T04:46:20;12.60;92.70
35463;DHT22;21578;47.892;9.970;2022-07-09T04:51:07;12.70;92.40
35463;DHT22;21578;47.892;9.970;2022-07-09T04:55:55;12.80;92.90
35463;DHT22;21578;47.892;9.970;2022-07-09T05:00:42;12.90;92.20
35463;DHT22;21578;47.892;9.970;2022-07-09T05:05:29;13.00;91.90
35463;DHT22;21578;47.892;9.970;2022-07-09T05:10:17;13.10;92.60
35463;DHT22;21578;47.892;9.970;2022-07-09T05:15:08;13.20;92.00
35463;DHT22;21578;47.892;9.970;2022-07-09T05:19:55;13.40;92.00
35463;DHT22;21578;47.892;9.970;2022-07-09T05:24:42;13.50;92.50
35463;DHT22;21578;47.892;9.970;2022-07-09T05:29:29;13.70;92.20
35463;DHT22;21578;47.892;9.970;2022-07-09T05:34:17;13.90;92.30
35463;DHT22;21578;47.892;9.970;2022-07-09T05:39:04;14.10;92.00
35463;DHT22;21578;47.892;9.970;2022-07-09T05:43:53;14.20;91.80
35463;DHT22;21578;47.892;9.970;2022-07-09T05:48:40;14.50;90.10
35463;DHT22;21578;47.892;9.970;2022-07-09T05:53:28;14.80;86.80
35463;DHT22;21578;47.892;9.970;2022-07-09T05:58:15;15.10;86.20
35463;DHT22;21578;47.892;9.970;2022-07-09T06:03:03;15.40;82.20
35463;DHT22;21578;47.892;9.970;2022-07-09T06:07:50;15.50;80.30
35463;DHT22;21578;47.892;9.970;2022-07-09T06:12:39;15.60;80.50
35463;DHT22;21578;47.892;9.970;2022-07-09T06:17:27;15.70;79.00
35463;DHT22;21578;47.892;9.970;2022-07-09T06:22:14;15.80;79.90
35463;DHT22;21578;47.892;9.970;2022-07-09T06:27:01;15.90;79.60
35463;DHT22;21578;47.892;9.970;2022-07-09T06:31:50;16.00;78.70
35463;DHT22;21578;47.892;9.970;2022-07-09T06:36:37;16.10;79.10
35463;DHT22;21578;47.892;9.970;2022-07-09T06:41:24;16.20;79.30
35463;DHT22;21578;47.892;9.970;2022-07-09T06:46:11;16.30;79.60
35463;DHT22;21578;47.892;9.970;2022-07-09T06:50:59;16.30;80.10
35463;DHT22;21578;47.892;9.970;2022-07-09T06:55:46;16.50;78.10
35463;DHT22;21578;47.892;9.970;2022-07-09T07:00:34;16.60;76.30
35463;DHT22;21578;47.892;9.970;2022-07-09T07:05:21;16.60;75.00
35463;DHT22;21578;47.892;9.970;2022-07-09T07:10:09;16.70;74.30
35463;DHT22;21578;47.892;9.970;2022-07-09T07:14:56;16.80;73.20
35463;DHT22;21578;47.892;9.970;2022-07-09T07:19:44;16.80;73.70
35463;DHT22;21578;47.892;9.970;2022-07-09T07:24:31;17.10;74.40
35463;DHT22;21578;47.892;9.970;2022-07-09T07:29:20;17.20;71.90
35463;DHT22;21578;47.892;9.970;2022-07-09T07:34:07;17.30;71.30
35463;DHT22;21578;47.892;9.970;2022-07-09T07:38:54;17.30;72.60
35463;DHT22;21578;47.892;9.970;2022-07-09T07:43:41;17.50;73.30
35463;DHT22;21578;47.892;9.970;2022-07-09T07:48:29;17.60;74.00
35463;DHT22;21578;47.892;9.970;2022-07-09T07:53:16;17.70;73.00
35463;DHT22;21578;47.892;9.970;2022-07-09T07:58:03;17.70;73.00
35463;DHT22;21578;47.892;9.970;2022-07-09T08:02:51;17.80;71.60
35463;DHT22;21578;47.892;9.970;2022-07-09T08:07:39;17.90;71.40
35463;DHT22;21578;47.892;9.970;2022-07-09T08:12:26;18.00;72.70
35463;DHT22;21578;47.892;9.970;2022-07-09T08:17:13;18.10;69.20
35463;DHT22;21578;47.892;9.970;2022-07-09T08:22:00;18.20;71.70
35463;DHT22;21578;47.892;9.970;2022-07-09T08:26:49;18.40;71.30
35463;DHT22;21578;47.892;9.970;2022-07-09T08:31:36;18.40;71.10
35463;DHT22;21578;47.892;9.970;2022-07-09T08:36:23;18.60;70.40
35463;DHT22;21578;47.892;9.970;2022-07-09T08:41:10;18.80;70.30
35463;DHT22;21578;47.892;9.970;2022-07-09T08:45:59;18.90;69.80
35463;DHT22;21578;47.892;9.970;2022-07-09T08:50:46;19.00;69.70
35463;DHT22;21578;47.892;9.970;2022-07-09T08:55:34;19.00;70.40
35463;DHT22;21578;47.892;9.970;2022-07-09T09:00:22;19.20;68.80
35463;DHT22;21578;47.892;9.970;2022-07-09T09:05:13;19.20;69.40
35463;DHT22;21578;47.892;9.970;2022-07-09T09:10:00;19.30;69.40
35463;DHT22;21578;47.892;9.970;2022-07-09T09:14:50;19.50;68.70
35463;DHT22;21578;47.892;9.970;2022-07-09T09:19:37;19.60;68.30
35463;DHT22;21578;47.892;9.970;2022-07-09T09:24:27;19.50;67.00
35463;DHT22;21578;47.892;9.970;2022-07-09T09:29:15;19.40;66.50
35463;DHT22;21578;47.892;9.970;2022-07-09T09:34:11;19.60;66.80
35463;DHT22;21578;47.892;9.970;2022-07-09T09:39:13;19.70;65.90
35463;DHT22;21578;47.892;9.970;2022-07-09T09:44:05;19.60;66.50
35463;DHT22;21578;47.892;9.970;2022-07-09T09:48:56;19.70;67.40
35463;DHT22;21578;47.892;9.970;2022-07-09T09:53:43;19.90;67.00
35463;DHT22;21578;47.892;9.970;2022-07-09T09:58:31;20.00;66.50
35463;DHT22;21578;47.892;9.970;2022-07-09T10:03:21;20.00;66.30
35463;DHT22;21578;47.892;9.970;2022-07-09T10:08:09;20.00;65.90
35463;DHT22;21578;47.892;9.970;2022-07-09T10:12:57;20.10;62.50
35463;DHT22;21578;47.892;9.970;2022-07-09T10:17:44;20.00;65.20
35463;DHT22;21578;47.892;9.970;2022-07-09T10:22:36;20.10;63.90
35463;DHT22;21578;47.892;9.970;2022-07-09T10:27:23;20.00;65.00
35463;DHT22;21578;47.892;9.970;2022-07-09T10:32:23;20.10;63.30
35463;DHT22;21578;47.892;9.970;2022-07-09T10:37:11;20.10;64.50
35463;DHT22;21578;47.892;9.970;2022-07-09T10:42:05;20.50;60.60
35463;DHT22;21578;47.892;9.970;2022-07-09T10:46:56;20.70;61.30
35463;DHT22;21578;47.892;9.970;2022-07-09T10:51:43;21.10;58.10
35463;DHT22;21578;47.892;9.970;2022-07-09T10:56:30;21.20;59.50
35463;DHT22;21578;47.892;9.970;2022-07-09T11:01:24;21.20;58.10
35463;DHT22;21578;47.892;9.970;2022-07-09T11:06:11;21.10;59.70
35463;DHT22;21578;47.892;9.970;2022-07-09T11:10:58;21.10;58.30
35463;DHT22;21578;47.892;9.970;2022-07-09T11:15:45;21.50;60.30
35463;DHT22;21578;47.892;9.970;2022-07-09T11:20:38;22.10;57.90
35463;DHT22;21578;47.892;9.970;2022-07-09T11:25:27;22.70;55.60
35463;DHT22;21578;47.892;9.970;2022-07-09T11:30:14;23.10;54.30
35463;DHT22;21578;47.892;9.970;2022-07-09T11:35:01;22.90;55.80
35463;DHT22;21578;47.892;9.970;2022-07-09T11:39:52;22.40;56.70
35463;DHT22;21578;47.892;9.970;2022-07-09T11:44:39;22.40;57.00
35463;DHT22;21578;47.892;9.970;2022-07-09T11:49:32;22.20;58.30
35463;DHT22;21578;47.892;9.970;2022-07-09T11:54:26;22.30;58.00
35463;DHT22;21578;47.892;9.970;2022-07-09T11:59:25;23.10;57.10
35463;DHT22;21578;47.892;9.970;2022-07-09T12:04:18;23.70;55.40
35463;DHT22;21578;47.892;9.970;2022-07-09T12:09:06;24.40;54.40
35463;DHT22;21578;47.892;9.970;2022-07-09T12:13:53;25.10;54.30
35463;DHT22;21578;47.892;9.970;2022-07-09T12:18:41;25.30;51.40
35463;DHT22;21578;47.892;9.970;2022-07-09T12:23:28;25.20;53.50
35463;DHT22;21578;47.892;9.970;2022-07-09T12:28:15;25.30;52.00
35463;DHT22;21578;47.892;9.970;2022-07-09T12:33:02;25.10;52.30
35463;DHT22;21578;47.892;9.970;2022-07-09T12:37:51;25.10;53.70
35463;DHT22;21578;47.892;9.970;2022-07-09T12:42:38;24.60;53.80
35463;DHT22;21578;47.892;9.970;2022-07-09T12:47:25;24.50;55.20
35463;DHT22;21578;47.892;9.970;2022-07-09T12:52:12;25.30;52.30
35463;DHT22;21578;47.892;9.970;2022-07-09T12:57:01;25.60;51.90
35463;DHT22;21578;47.892;9.970;2022-07-09T13:01:48;24.80;52.00
35463;DHT22;21578;47.892;9.970;2022-07-09T13:06:35;24.20;53.10
35463;DHT22;21578;47.892;9.970;2022-07-09T13:11:22;24.50;52.90
35463;DHT22;21578;47.892;9.970;2022-07-09T13:16:11;24.90;52.80
35463;DHT22;21578;47.892;9.970;2022-07-09T13:20:58;25.40;50.50
35463;DHT22;21578;47.892;9.970;2022-07-09T13:25:45;25.70;51.30
35463;DHT22;21578;47.892;9.970;2022-07-09T13:30:32;26.70;49.90
35463;DHT22;21578;47.892;9.970;2022-07-09T13:35:20;27.20;49.00
35463;DHT22;21578;47.892;9.970;2022-07-09T13:40:10;27.20;48.10
35463;DHT22;21578;47.892;9.970;2022-07-09T13:44:57;27.00;49.00
35463;DHT22;21578;47.892;9.970;2022-07-09T13:49:44;26.80;49.70
35463;DHT22;21578;47.892;9.970;2022-07-09T13:54:33;27.50;47.40
35463;DHT22;21578;47.892;9.970;2022-07-09T13:59:20;28.40;47.70
35463;DHT22;21578;47.892;9.970;2022-07-09T14:04:07;28.80;45.50
35463;DHT22;21578;47.892;9.970;2022-07-09T14:08:54;27.60;47.70
35463;DHT22;21578;47.892;9.970;2022-07-09T14:13:42;25.80;51.50
35463;DHT22;21578;47.892;9.970;2022-07-09T14:18:30;25.90;52.00
35463;DHT22;21578;47.892;9.970;2022-07-09T14:23:18;25.90;52.10
35463;DHT22;21578;47.892;9.970;2022-07-09T14:28:05;25.70;52.20
35463;DHT22;21578;47.892;9.970;2022-07-09T14:32:54;25.40;52.30
35463;DHT22;21578;47.892;9.970;2022-07-09T14:37:41;25.10;53.20
35463;DHT22;21578;47.892;9.970;2022-07-09T14:42:28;24.80;52.90
35463;DHT22;21578;47.892;9.970;2022-07-09T14:47:15;24.30;54.90
35463;DHT22;21578;47.892;9.970;2022-07-09T14:52:03;24.30;53.30
35463;DHT22;21578;47.892;9.970;2022-07-09T14:56:51;24.50;53.80
35463;DHT22;21578;47.892;9.970;2022-07-09T15:01:38;24.70;52.90
35463;DHT22;21578;47.892;9.970;2022-07-09T15:06:25;24.50;53.70
35463;DHT22;21578;47.892;9.970;2022-07-09T15:11:13;24.30;53.20
35463;DHT22;21578;47.892;9.970;2022-07-09T15:16:00;24.20;54.40
35463;DHT22;21578;47.892;9.970;2022-07-09T15:20:47;24.30;54.40
35463;DHT22;21578;47.892;9.970;2022-07-09T15:25:35;24.30;54.30
35463;DHT22;21578;47.892;9.970;2022-07-09T15:30:23;24.30;53.50
35463;DHT22;21578;47.892;9.970;2022-07-09T15:35:12;24.40;55.00
35463;DHT22;21578;47.892;9.970;2022-07-09T15:39:59;24.10;55.40
35463;DHT22;21578;47.892;9.970;2022-07-09T15:44:46;24.00;56.80
35463;DHT22;21578;47.892;9.970;2022-07-09T15:49:35;23.80;56.80
35463;DHT22;21578;47.892;9.970;2022-07-09T15:54:22;24.30;55.40
35463;DHT22;21578;47.892;9.970;2022-07-09T15:59:09;24.10;55.30
35463;DHT22;21578;47.892;9.970;2022-07-09T16:03:56;23.80;55.30
35463;DHT22;21578;47.892;9.970;2022-07-09T16:08:44;23.70;56.10
35463;DHT22;21578;47.892;9.970;2022-07-09T16:13:31;24.10;56.30
35463;DHT22;21578;47.892;9.970;2022-07-09T16:18:18;24.40;55.80
35463;DHT22;21578;47.892;9.970;2022-07-09T16:23:05;24.00;56.90
35463;DHT22;21578;47.892;9.970;2022-07-09T16:27:54;24.20;57.00
35463;DHT22;21578;47.892;9.970;2022-07-09T16:32:41;24.00;57.20
35463;DHT22;21578;47.892;9.970;2022-07-09T16:37:28;24.30;55.90
35463;DHT22;21578;47.892;9.970;2022-07-09T16:42:16;24.80;55.40
35463;DHT22;21578;47.892;9.970;2022-07-09T16:47:04;24.80;54.30
35463;DHT22;21578;47.892;9.970;2022-07-09T16:51:51;25.20;53.60
35463;DHT22;21578;47.892;9.970;2022-07-09T16:56:38;25.10;53.90
35463;DHT22;21578;47.892;9.970;2022-07-09T17:01:25;25.50;53.80
35463;DHT22;21578;47.892;9.970;2022-07-09T17:06:14;26.20;53.80
35463;DHT22;21578;47.892;9.970;2022-07-09T17:11:01;26.30;53.10
35463;DHT22;21578;47.892;9.970;2022-07-09T17:15:48;26.30;52.40
35463;DHT22;21578;47.892;9.970;2022-07-09T17:20:35;26.50;52.70
35463;DHT22;21578;47.892;9.970;2022-07-09T17:25:24;26.40;53.30
35463;DHT22;21578;47.892;9.970;2022-07-09T17:30:11;26.40;52.50
35463;DHT22;21578;47.892;9.970;2022-07-09T17:34:58;25.70;53.50
35463;DHT22;21578;47.892;9.970;2022-07-09T17:39:46;25.00;55.50
35463;DHT22;21578;47.892;9.970;2022-07-09T17:49:22;25.00;56.30
35463;DHT22;21578;47.892;9.970;2022-07-09T17:54:09;25.00;56.00
35463;DHT22;21578;47.892;9.970;2022-07-09T17:58:56;25.10;58.00
35463;DHT22;21578;47.892;9.970;2022-07-09T18:03:43;24.80;57.60
35463;DHT22;21578;47.892;9.970;2022-07-09T18:08:32;24.80;58.40
35463;DHT22;21578;47.892;9.970;2022-07-09T18:13:19;24.60;59.90
35463;DHT22;21578;47.892;9.970;2022-07-09T18:18:07;24.30;59.20
35463;DHT22;21578;47.892;9.970;2022-07-09T18:22:54;24.20;58.70
35463;DHT22;21578;47.892;9.970;2022-07-09T18:27:44;23.90;59.30
35463;DHT22;21578;47.892;9.970;2022-07-09T18:32:31;23.40;61.70
35463;DHT22;21578;47.892;9.970;2022-07-09T18:37:18;23.30;61.10
35463;DHT22;21578;47.892;9.970;2022-07-09T18:42:06;23.10;61.20
35463;DHT22;21578;47.892;9.970;2022-07-09T18:46:55;22.90;62.20
35463;DHT22;21578;47.892;9.970;2022-07-09T18:51:42;22.70;65.80
35463;DHT22;21578;47.892;9.970;2022-07-09T18:56:29;22.60;63.40
35463;DHT22;21578;47.892;9.970;2022-07-09T19:01:16;22.40;64.60
35463;DHT22;21578;47.892;9.970;2022-07-09T19:06:05;22.20;66.80
35463;DHT22;21578;47.892;9.970;2022-07-09T19:10:52;22.00;69.80
35463;DHT22;21578;47.892;9.970;2022-07-09T19:15:40;21.60;71.20
35463;DHT22;21578;47.892;9.970;2022-07-09T19:20:27;21.40;71.40
35463;DHT22;21578;47.892;9.970;2022-07-09T19:25:16;21.30;71.10
35463;DHT22;21578;47.892;9.970;2022-07-09T19:30:04;21.10;71.90
35463;DHT22;21578;47.892;9.970;2022-07-09T19:34:51;21.00;71.80
35463;DHT22;21578;47.892;9.970;2022-07-09T19:39:38;20.80;72.30
35463;DHT22;21578;47.892;9.970;2022-07-09T19:44:26;20.60;72.40
35463;DHT22;21578;47.892;9.970;2022-07-09T19:49:13;20.30;73.30
35463;DHT22;21578;47.892;9.970;2022-07-09T19:54:01;20.20;73.40
35463;DHT22;21578;47.892;9.970;2022-07-09T19:58:48;20.10;74.20
35463;DHT22;21578;47.892;9.970;2022-07-09T20:03:36;20.20;74.80
35463;DHT22;21578;47.892;9.970;2022-07-09T20:08:24;20.10;74.80
35463;DHT22;21578;47.892;9.970;2022-07-09T20:13:11;20.10;75.10
35463;DHT22;21578;47.892;9.970;2022-07-09T20:17:58;20.00;75.30
35463;DHT22;21578;47.892;9.970;2022-07-09T20:22:46;19.90;74.90
35463;DHT22;21578;47.892;9.970;2022-07-09T20:27:33;19.90;74.70
35463;DHT22;21578;47.892;9.970;2022-07-09T20:32:20;19.90;75.30
35463;DHT22;21578;47.892;9.970;2022-07-09T20:37:07;19.80;75.40
35463;DHT22;21578;47.892;9.970;2022-07-09T20:41:55;19.80;76.30
35463;DHT22;21578;47.892;9.970;2022-07-09T20:46:43;19.80;76.50
35463;DHT22;21578;47.892;9.970;2022-07-09T20:51:30;19.60;76.20
35463;DHT22;21578;47.892;9.970;2022-07-09T20:56:17;19.60;76.80
35463;DHT22;21578;47.892;9.970;2022-07-09T21:01:06;19.50;76.90
35463;DHT22;21578;47.892;9.970;2022-07-09T21:05:53;19.50;76.90
35463;DHT22;21578;47.892;9.970;2022-07-09T21:10:40;19.40;78.00
35463;DHT22;21578;47.892;9.970;2022-07-09T21:15:27;19.20;79.20
35463;DHT22;21578;47.892;9.970;2022-07-09T21:20:16;19.10;79.60
35463;DHT22;21578;47.892;9.970;2022-07-09T21:25:03;19.10;80.10
35463;DHT22;21578;47.892;9.970;2022-07-09T21:29:51;18.90;80.40
35463;DHT22;21578;47.892;9.970;2022-07-09T21:34:38;18.80;80.30
35463;DHT22;21578;47.892;9.970;2022-07-09T21:39:26;18.70;80.60
35463;DHT22;21578;47.892;9.970;2022-07-09T21:44:13;18.70;80.90
35463;DHT22;21578;47.892;9.970;2022-07-09T21:49:00;18.70;81.40
35463;DHT22;21578;47.892;9.970;2022-07-09T21:53:47;18.60;80.80
35463;DHT22;21578;47.892;9.970;2022-07-09T21:58:36;18.50;81.10
35463;DHT22;21578;47.892;9.970;2022-07-09T22:03:23;18.50;81.50
35463;DHT22;21578;47.892;9.970;2022-07-09T22:08:10;18.40;81.70
35463;DHT22;21578;47.892;9.970;2022-07-09T22:12:58;18.40;81.70
35463;DHT22;21578;47.892;9.970;2022-07-09T22:17:47;18.30;81.10
35463;DHT22;21578;47.892;9.970;2022-07-09T22:22:34;18.30;80.50
35463;DHT22;21578;47.892;9.970;2022-07-09T22:27:21;18.30;80.00
35463;DHT22;21578;47.892;9.970;2022-07-09T22:32:08;18.30;80.90
35463;DHT22;21578;47.892;9.970;2022-07-09T22:36:56;18.40;82.60
35463;DHT22;21578;47.892;9.970;2022-07-09T22:41:43;18.30;81.20
35463;DHT22;21578;47.892;9.970;2022-07-09T22:46:30;18.20;81.50
35463;DHT22;21578;47.892;9.970;2022-07-09T22:51:17;18.00;82.10
35463;DHT22;21578;47.892;9.970;2022-07-09T22:56:06;17.90;83.00
35463;DHT22;21578;47.892;9.970;2022-07-09T23:00:53;17.90;82.40
35463;DHT22;21578;47.892;9.970;2022-07-09T23:05:40;17.90;82.00
35463;DHT22;21578;47.892;9.970;2022-07-09T23:10:27;18.10;81.70
35463;DHT22;21578;47.892;9.970;2022-07-09T23:15:16;18.20;82.10
35463;DHT22;21578;47.892;9.970;2022-07-09T23:20:04;18.20;81.10
35463;DHT22;21578;47.892;9.970;2022-07-09T23:24:51;18.30;81.60
35463;DHT22;21578;47.892;9.970;2022-07-09T23:29:43;18.30;81.50
35463;DHT22;21578;47.892;9.970;2022-07-09T23:34:31;18.40;81.40
35463;DHT22;21578;47.892;9.970;2022-07-09T23:39:18;18.40;82.80
35463;DHT22;21578;47.892;9.970;2022-07-09T23:44:05;18.40;82.30
35463;DHT22;21578;47.892;9.970;2022-07-09T23:48:52;18.40;85.40
35463;DHT22;21578;47.892;9.970;2022-07-09T23:53:40;18.40;86.20
35463;DHT22;21578;47.892;9.970;2022-07-09T23:58:27;18.40;86.00
